createdAt,value
2018-07-14T00:00:30.755Z,17.9
2018-07-14T00:01:30.179Z,17.9
2018-07-14T00:02:29.501Z,17.9
2018-07-14T00:03:28.941Z,17.8
2018-07-14T00:05:27.548Z,17.8
2018-07-14T00:06:26.865Z,17.8
2018-07-14T00:07:26.287Z,17.8
2018-07-14T00:08:25.620Z,17.8
2018-07-14T00:09:24.949Z,17.8
2018-07-14T00:10:24.288Z,17.7
2018-07-14T00:11:24.054Z,17.7
2018-07-14T00:12:23.369Z,17.7
2018-07-14T00:13:22.289Z,17.7
2018-07-14T00:13:52.923Z,17.7
2018-07-14T00:14:23.451Z,17.7
2018-07-14T00:15:21.369Z,17.7
2018-07-14T00:16:20.373Z,17.7
2018-07-14T00:17:19.483Z,17.6
2018-07-14T00:18:19.418Z,17.6
2018-07-14T00:19:18.849Z,17.6
2018-07-14T00:20:18.058Z,17.6
2018-07-14T00:21:17.378Z,17.6
2018-07-14T00:22:16.802Z,17.6
2018-07-14T00:23:16.015Z,17.6
2018-07-14T00:24:15.357Z,17.6
2018-07-14T00:25:14.849Z,17.6
2018-07-14T00:26:14.179Z,17.6
2018-07-14T00:27:13.391Z,17.6
2018-07-14T00:28:12.891Z,17.5
2018-07-14T00:29:12.098Z,17.5
2018-07-14T00:30:11.492Z,17.5
2018-07-14T00:31:11.104Z,17.5
2018-07-14T00:32:10.312Z,17.5
2018-07-14T00:33:09.626Z,17.5
2018-07-14T00:34:08.625Z,17.4
2018-07-14T00:35:08.234Z,17.4
2018-07-14T00:36:07.451Z,17.4
2018-07-14T00:37:06.880Z,17.4
2018-07-14T00:38:06.200Z,17.4
2018-07-14T00:39:05.409Z,17.4
2018-07-14T00:40:05.234Z,17.4
2018-07-14T00:42:03.832Z,17.3
2018-07-14T00:43:03.265Z,17.3
2018-07-14T00:44:02.477Z,17.3
2018-07-14T00:45:01.834Z,17.3
2018-07-14T00:46:00.935Z,17.3
2018-07-14T00:47:00.321Z,17.3
2018-07-14T00:47:59.752Z,17.2
2018-07-14T00:48:30.388Z,17.2
2018-07-14T00:49:00.917Z,17.2
2018-07-14T00:49:58.329Z,17.2
2018-07-14T00:50:57.659Z,17.2
2018-07-14T00:51:56.979Z,17.2
2018-07-14T00:52:56.702Z,17.2
2018-07-14T00:53:55.813Z,17.2
2018-07-14T00:54:26.560Z,17.2
2018-07-14T00:54:57.076Z,17.2
2018-07-14T00:55:27.310Z,17.2
2018-07-14T00:55:57.545Z,17.2
2018-07-14T00:56:28.069Z,17.2
2018-07-14T00:56:58.702Z,17.2
2018-07-14T00:57:53.377Z,17.2
2018-07-14T00:58:52.698Z,17.2
2018-07-14T00:59:52.012Z,17.1
2018-07-14T01:00:51.227Z,17.1
2018-07-14T01:01:50.657Z,17.1
2018-07-14T01:02:49.868Z,17.1
2018-07-14T01:03:49.191Z,17.1
2018-07-14T01:04:48.416Z,17.1
2018-07-14T01:05:18.556Z,17.1
2018-07-14T01:05:49.077Z,17.1
2018-07-14T01:06:19.605Z,17.1
2018-07-14T01:06:50.242Z,17
2018-07-14T01:07:20.863Z,17
2018-07-14T01:08:45.962Z,17
2018-07-14T01:09:16.190Z,17
2018-07-14T01:09:46.314Z,17
2018-07-14T01:10:44.743Z,17
2018-07-14T01:11:44.108Z,17
2018-07-14T01:12:43.211Z,17
2018-07-14T01:13:42.633Z,16.9
2018-07-14T01:14:41.965Z,16.9
2018-07-14T01:15:41.184Z,16.9
2018-07-14T01:16:40.412Z,16.9
2018-07-14T01:17:39.851Z,16.9
2018-07-14T01:18:39.471Z,16.9
2018-07-14T01:19:38.471Z,16.9
2018-07-14T01:20:38.085Z,16.9
2018-07-14T01:21:37.302Z,16.9
2018-07-14T01:22:36.505Z,16.9
2018-07-14T01:23:35.725Z,16.9
2018-07-14T01:24:35.551Z,16.9
2018-07-14T01:25:34.879Z,16.9
2018-07-14T01:26:34.193Z,16.9
2018-07-14T01:27:33.301Z,16.9
2018-07-14T01:28:32.629Z,16.9
2018-07-14T01:29:31.958Z,16.9
2018-07-14T01:30:31.387Z,16.9
2018-07-14T01:31:30.824Z,16.9
2018-07-14T01:32:30.140Z,16.9
2018-07-14T01:33:29.582Z,16.9
2018-07-14T01:34:28.297Z,16.8
2018-07-14T01:35:28.232Z,16.8
2018-07-14T01:36:27.653Z,16.8
2018-07-14T01:37:26.859Z,16.9
2018-07-14T01:38:26.174Z,16.9
2018-07-14T01:39:25.494Z,16.9
2018-07-14T01:40:24.816Z,16.8
2018-07-14T01:41:24.138Z,16.8
2018-07-14T01:42:23.454Z,16.8
2018-07-14T01:43:22.774Z,16.8
2018-07-14T01:44:22.091Z,16.9
2018-07-14T01:45:21.092Z,16.8
2018-07-14T01:46:20.808Z,16.8
2018-07-14T01:47:19.916Z,16.8
2018-07-14T01:48:19.637Z,16.8
2018-07-14T01:48:49.869Z,16.8
2018-07-14T01:49:20.523Z,16.8
2018-07-14T01:50:17.833Z,16.8
2018-07-14T01:51:17.152Z,16.8
2018-07-14T01:52:16.873Z,16.8
2018-07-14T01:53:16.185Z,16.8
2018-07-14T01:54:15.195Z,16.8
2018-07-14T01:55:14.522Z,16.8
2018-07-14T01:56:13.844Z,16.8
2018-07-14T01:57:13.163Z,16.8
2018-07-14T01:58:12.374Z,16.8
2018-07-14T01:59:11.985Z,16.8
2018-07-14T02:00:11.196Z,16.8
2018-07-14T02:01:10.512Z,16.8
2018-07-14T02:02:09.832Z,16.8
2018-07-14T02:03:09.048Z,16.8
2018-07-14T02:04:08.477Z,16.8
2018-07-14T02:05:08.191Z,16.7
2018-07-14T02:06:07.395Z,16.7
2018-07-14T02:07:06.715Z,16.7
2018-07-14T02:08:06.050Z,16.6
2018-07-14T02:09:05.313Z,16.6
2018-07-14T02:10:04.321Z,16.6
2018-07-14T02:11:03.934Z,16.6
2018-07-14T02:12:03.253Z,16.6
2018-07-14T02:13:02.379Z,16.6
2018-07-14T02:14:01.598Z,16.6
2018-07-14T02:15:01.315Z,16.6
2018-07-14T02:16:00.643Z,16.5
2018-07-14T02:16:59.969Z,16.5
2018-07-14T02:17:59.082Z,16.5
2018-07-14T02:18:58.804Z,16.5
2018-07-14T02:19:57.637Z,16.5
2018-07-14T02:20:57.351Z,16.5
2018-07-14T02:21:56.774Z,16.4
2018-07-14T02:22:55.998Z,16.4
2018-07-14T02:24:54.706Z,16.4
2018-07-14T02:25:53.929Z,16.4
2018-07-14T02:26:24.570Z,16.4
2018-07-14T02:27:52.358Z,16.4
2018-07-14T02:28:51.574Z,16.3
2018-07-14T02:29:50.842Z,16.3
2018-07-14T02:30:50.675Z,16.3
2018-07-14T02:31:49.648Z,16.3
2018-07-14T02:32:48.872Z,16.3
2018-07-14T02:33:48.200Z,16.3
2018-07-14T02:34:47.538Z,16.3
2018-07-14T02:35:46.963Z,16.2
2018-07-14T02:36:46.371Z,16.3
2018-07-14T02:37:45.694Z,16.2
2018-07-14T02:38:45.119Z,16.2
2018-07-14T02:39:44.443Z,16.2
2018-07-14T02:40:43.686Z,16.3
2018-07-14T02:41:42.812Z,16.2
2018-07-14T02:42:42.175Z,16.2
2018-07-14T02:43:41.626Z,16.2
2018-07-14T02:44:12.269Z,16.2
2018-07-14T02:44:42.907Z,16.2
2018-07-14T02:45:13.030Z,16.2
2018-07-14T02:45:43.679Z,16.2
2018-07-14T02:46:14.313Z,16.2
2018-07-14T02:47:38.823Z,16.2
2018-07-14T02:49:37.696Z,16.1
2018-07-14T02:50:36.521Z,16.1
2018-07-14T02:51:36.246Z,16.1
2018-07-14T02:52:35.575Z,16.1
2018-07-14T02:53:34.906Z,16.1
2018-07-14T02:54:34.264Z,16.1
2018-07-14T02:55:33.557Z,16.1
2018-07-14T02:56:32.513Z,16.1
2018-07-14T02:57:31.953Z,16
2018-07-14T02:58:31.184Z,16
2018-07-14T02:59:30.423Z,16
2018-07-14T03:00:29.749Z,16
2018-07-14T03:01:29.186Z,16
2018-07-14T03:02:28.397Z,16
2018-07-14T03:03:27.732Z,16
2018-07-14T03:04:27.168Z,16
2018-07-14T03:05:26.507Z,16
2018-07-14T03:06:25.841Z,16
2018-07-14T03:07:25.072Z,16
2018-07-14T03:08:24.398Z,16
2018-07-14T03:09:23.777Z,16
2018-07-14T03:10:23.114Z,16
2018-07-14T03:11:22.441Z,16
2018-07-14T03:12:21.884Z,16
2018-07-14T03:13:21.217Z,16
2018-07-14T03:14:20.548Z,15.9
2018-07-14T03:15:19.881Z,15.9
2018-07-14T03:16:18.832Z,15.9
2018-07-14T03:17:18.063Z,15.9
2018-07-14T03:18:17.504Z,15.9
2018-07-14T03:19:16.828Z,15.9
2018-07-14T03:20:16.195Z,15.9
2018-07-14T03:21:15.419Z,15.9
2018-07-14T03:22:14.637Z,15.9
2018-07-14T03:23:13.994Z,15.9
2018-07-14T03:24:13.313Z,15.8
2018-07-14T03:25:12.451Z,15.8
2018-07-14T03:26:12.176Z,15.8
2018-07-14T03:27:11.186Z,15.8
2018-07-14T03:27:41.991Z,15.8
2018-07-14T03:28:12.125Z,15.8
2018-07-14T03:28:42.819Z,15.8
2018-07-14T03:29:13.450Z,15.8
2018-07-14T03:30:09.099Z,15.7
2018-07-14T03:31:08.719Z,15.7
2018-07-14T03:32:07.848Z,15.7
2018-07-14T03:33:07.147Z,15.7
2018-07-14T03:34:06.601Z,15.7
2018-07-14T03:35:05.970Z,15.7
2018-07-14T03:36:04.908Z,15.7
2018-07-14T03:37:04.255Z,15.7
2018-07-14T03:38:03.579Z,15.6
2018-07-14T03:39:02.800Z,15.6
2018-07-14T03:40:02.144Z,15.6
2018-07-14T03:41:01.764Z,15.6
2018-07-14T03:42:01.085Z,15.6
2018-07-14T03:43:00.311Z,15.6
2018-07-14T03:43:59.526Z,15.6
2018-07-14T03:44:58.851Z,15.6
2018-07-14T03:45:58.064Z,15.6
2018-07-14T03:46:57.283Z,15.6
2018-07-14T03:47:57.004Z,15.5
2018-07-14T03:48:56.322Z,15.5
2018-07-14T03:49:55.644Z,15.5
2018-07-14T03:50:54.463Z,15.5
2018-07-14T03:51:53.697Z,15.5
2018-07-14T03:52:53.419Z,15.5
2018-07-14T03:53:52.639Z,15.5
2018-07-14T03:54:51.850Z,15.5
2018-07-14T03:55:51.179Z,15.5
2018-07-14T03:56:50.758Z,15.4
2018-07-14T03:58:49.041Z,15.4
2018-07-14T03:59:48.468Z,15.4
2018-07-14T04:00:47.806Z,15.4
2018-07-14T04:01:47.239Z,15.4
2018-07-14T04:02:46.055Z,15.4
2018-07-14T04:03:45.376Z,15.4
2018-07-14T04:04:15.842Z,15.4
2018-07-14T04:04:46.376Z,15.4
2018-07-14T04:05:16.908Z,15.4
2018-07-14T04:05:47.648Z,15.4
2018-07-14T04:06:43.470Z,15.4
2018-07-14T04:07:42.911Z,15.4
2018-07-14T04:08:42.139Z,15.4
2018-07-14T04:09:41.356Z,15.4
2018-07-14T04:10:40.356Z,15.4
2018-07-14T04:11:39.681Z,15.4
2018-07-14T04:12:39.110Z,15.4
2018-07-14T04:13:38.438Z,15.4
2018-07-14T04:14:37.958Z,15.4
2018-07-14T04:15:37.259Z,15.4
2018-07-14T04:16:36.382Z,15.4
2018-07-14T04:17:35.603Z,15.5
2018-07-14T04:18:34.919Z,15.5
2018-07-14T04:19:34.247Z,15.5
2018-07-14T04:20:33.683Z,15.5
2018-07-14T04:21:33.016Z,15.5
2018-07-14T04:22:32.342Z,15.5
2018-07-14T04:23:31.660Z,15.5
2018-07-14T04:24:30.770Z,15.5
2018-07-14T04:25:30.198Z,15.5
2018-07-14T04:26:29.628Z,15.5
2018-07-14T04:27:28.953Z,15.5
2018-07-14T04:28:27.669Z,15.5
2018-07-14T04:29:26.992Z,15.5
2018-07-14T04:30:26.441Z,15.5
2018-07-14T04:31:26.159Z,15.5
2018-07-14T04:32:24.877Z,15.5
2018-07-14T04:33:24.597Z,15.5
2018-07-14T04:34:24.034Z,15.5
2018-07-14T04:35:23.005Z,15.5
2018-07-14T04:36:22.431Z,15.5
2018-07-14T04:37:21.641Z,15.5
2018-07-14T04:38:20.870Z,15.5
2018-07-14T04:39:20.299Z,15.5
2018-07-14T04:40:19.626Z,15.5
2018-07-14T04:41:18.845Z,15.5
2018-07-14T04:42:18.005Z,15.5
2018-07-14T04:43:17.413Z,15.5
2018-07-14T04:44:16.849Z,15.5
2018-07-14T04:45:16.176Z,15.5
2018-07-14T04:46:15.516Z,15.6
2018-07-14T04:47:14.849Z,15.5
2018-07-14T04:49:13.348Z,15.5
2018-07-14T04:50:12.576Z,15.5
2018-07-14T04:51:11.679Z,15.5
2018-07-14T04:52:10.907Z,15.5
2018-07-14T04:53:10.257Z,15.5
2018-07-14T04:54:09.700Z,15.5
2018-07-14T04:55:09.134Z,15.4
2018-07-14T04:56:08.465Z,15.4
2018-07-14T04:57:07.680Z,15.4
2018-07-14T04:58:06.897Z,15.4
2018-07-14T04:58:37.636Z,15.4
2018-07-14T04:59:08.165Z,15.4
2018-07-14T05:00:05.501Z,15.4
2018-07-14T05:01:04.941Z,15.4
2018-07-14T05:02:04.059Z,15.3
2018-07-14T05:03:03.492Z,15.3
2018-07-14T05:04:02.704Z,15.3
2018-07-14T05:05:02.032Z,15.3
2018-07-14T05:06:01.259Z,15.3
2018-07-14T05:07:00.708Z,15.4
2018-07-14T05:08:00.050Z,15.4
2018-07-14T05:08:59.429Z,15.4
2018-07-14T05:09:58.247Z,15.4
2018-07-14T05:10:57.687Z,15.4
2018-07-14T05:11:57.009Z,15.4
2018-07-14T05:12:56.439Z,15.4
2018-07-14T05:13:55.662Z,15.4
2018-07-14T05:14:54.868Z,15.4
2018-07-14T05:15:54.184Z,15.4
2018-07-14T05:16:53.614Z,15.4
2018-07-14T05:17:52.590Z,15.4
2018-07-14T05:18:51.698Z,15.4
2018-07-14T05:19:51.070Z,15.5
2018-07-14T05:20:50.519Z,15.5
2018-07-14T05:21:49.629Z,15.5
2018-07-14T05:22:49.359Z,15.5
2018-07-14T05:23:48.577Z,15.5
2018-07-14T05:24:48.006Z,15.5
2018-07-14T05:25:47.227Z,15.5
2018-07-14T05:26:46.454Z,15.5
2018-07-14T05:27:45.821Z,15.5
2018-07-14T05:28:45.047Z,15.5
2018-07-14T05:29:44.269Z,15.5
2018-07-14T05:30:43.699Z,15.5
2018-07-14T05:31:43.028Z,15.5
2018-07-14T05:32:42.353Z,15.5
2018-07-14T05:33:41.071Z,15.5
2018-07-14T05:34:40.580Z,15.6
2018-07-14T05:35:39.916Z,15.6
2018-07-14T05:36:39.135Z,15.6
2018-07-14T05:37:38.560Z,15.6
2018-07-14T05:38:37.772Z,15.6
2018-07-14T05:39:37.214Z,15.6
2018-07-14T05:40:36.533Z,15.6
2018-07-14T05:41:35.859Z,15.6
2018-07-14T05:42:35.072Z,15.6
2018-07-14T05:43:34.397Z,15.6
2018-07-14T05:44:33.718Z,15.6
2018-07-14T05:45:33.044Z,15.6
2018-07-14T05:46:32.476Z,15.6
2018-07-14T05:47:31.704Z,15.6
2018-07-14T05:48:31.026Z,15.6
2018-07-14T05:49:30.240Z,15.6
2018-07-14T05:50:29.566Z,15.6
2018-07-14T05:51:28.885Z,15.6
2018-07-14T05:52:28.207Z,15.6
2018-07-14T05:53:27.428Z,15.6
2018-07-14T05:53:57.953Z,15.6
2018-07-14T05:54:28.695Z,15.6
2018-07-14T05:55:26.016Z,15.6
2018-07-14T05:56:25.457Z,15.6
2018-07-14T05:57:24.676Z,15.7
2018-07-14T05:58:23.894Z,15.7
2018-07-14T05:59:23.224Z,15.8
2018-07-14T06:00:22.655Z,15.8
2018-07-14T06:01:21.764Z,15.8
2018-07-14T06:02:20.978Z,15.8
2018-07-14T06:04:19.698Z,15.9
2018-07-14T06:05:18.924Z,15.9
2018-07-14T06:06:18.255Z,15.9
2018-07-14T06:07:17.588Z,15.9
2018-07-14T06:08:16.745Z,15.9
2018-07-14T06:09:16.174Z,15.8
2018-07-14T06:10:15.395Z,15.8
2018-07-14T06:11:14.614Z,15.9
2018-07-14T06:12:13.828Z,15.9
2018-07-14T06:13:13.155Z,15.9
2018-07-14T06:14:12.567Z,15.9
2018-07-14T06:15:12.020Z,15.9
2018-07-14T06:16:11.236Z,16
2018-07-14T06:17:10.723Z,16
2018-07-14T06:18:09.531Z,16
2018-07-14T06:19:08.895Z,16.1
2018-07-14T06:20:08.382Z,16.1
2018-07-14T06:21:07.615Z,16.1
2018-07-14T06:22:07.113Z,16.1
2018-07-14T06:23:06.445Z,16
2018-07-14T06:24:05.794Z,16
2018-07-14T06:25:05.005Z,16.1
2018-07-14T06:26:04.328Z,16.1
2018-07-14T06:27:03.656Z,16
2018-07-14T06:28:02.484Z,16
2018-07-14T06:29:01.808Z,16
2018-07-14T06:30:01.452Z,16
2018-07-14T06:31:00.889Z,16
2018-07-14T06:32:59.096Z,16.1
2018-07-14T06:33:58.533Z,16.1
2018-07-14T06:34:57.967Z,16.2
2018-07-14T06:35:28.103Z,16.2
2018-07-14T06:35:58.766Z,16.2
2018-07-14T06:36:29.508Z,16.2
2018-07-14T06:37:00.038Z,16.2
2018-07-14T06:37:30.671Z,16.2
2018-07-14T06:38:55.210Z,16.2
2018-07-14T06:39:54.435Z,16.2
2018-07-14T06:40:53.862Z,16.3
2018-07-14T06:41:53.079Z,16.3
2018-07-14T06:42:52.307Z,16.3
2018-07-14T06:43:51.698Z,16.3
2018-07-14T06:44:51.364Z,16.3
2018-07-14T06:45:49.882Z,16.3
2018-07-14T06:46:49.307Z,16.3
2018-07-14T06:47:48.643Z,16.4
2018-07-14T06:48:48.363Z,16.4
2018-07-14T06:49:47.282Z,16.3
2018-07-14T06:50:46.712Z,16.4
2018-07-14T06:51:46.142Z,16.4
2018-07-14T06:52:45.467Z,16.4
2018-07-14T06:53:44.905Z,16.4
2018-07-14T06:54:44.230Z,16.5
2018-07-14T06:55:43.054Z,16.5
2018-07-14T06:56:42.381Z,16.5
2018-07-14T06:57:41.698Z,16.5
2018-07-14T06:58:41.028Z,16.6
2018-07-14T06:59:40.650Z,16.6
2018-07-14T07:00:39.975Z,16.6
2018-07-14T07:01:39.189Z,16.7
2018-07-14T07:02:38.618Z,16.8
2018-07-14T07:03:37.546Z,16.8
2018-07-14T07:04:36.871Z,16.8
2018-07-14T07:05:36.488Z,16.8
2018-07-14T07:06:35.924Z,16.8
2018-07-14T07:08:34.130Z,16.9
2018-07-14T07:09:33.349Z,16.9
2018-07-14T07:10:32.790Z,16.9
2018-07-14T07:11:32.116Z,16.9
2018-07-14T07:12:31.547Z,16.9
2018-07-14T07:13:30.764Z,17
2018-07-14T07:14:30.196Z,17
2018-07-14T07:15:29.414Z,17
2018-07-14T07:16:28.843Z,16.9
2018-07-14T07:17:28.053Z,16.9
2018-07-14T07:17:58.687Z,16.9
2018-07-14T07:18:28.822Z,17
2018-07-14T07:19:26.647Z,17
2018-07-14T07:20:26.157Z,17
2018-07-14T07:21:25.796Z,17
2018-07-14T07:22:24.812Z,17.1
2018-07-14T07:23:24.038Z,17.1
2018-07-14T07:24:23.261Z,17.2
2018-07-14T07:25:22.483Z,17.2
2018-07-14T07:26:21.913Z,17.3
2018-07-14T07:27:21.036Z,17.3
2018-07-14T07:28:20.254Z,17.3
2018-07-14T07:29:20.078Z,17.3
2018-07-14T07:30:19.096Z,17.3
2018-07-14T07:31:18.529Z,17.3
2018-07-14T07:32:17.638Z,17.4
2018-07-14T07:33:17.362Z,17.4
2018-07-14T07:34:16.188Z,17.4
2018-07-14T07:35:15.698Z,17.3
2018-07-14T07:36:15.057Z,17.4
2018-07-14T07:37:14.411Z,17.4
2018-07-14T07:38:13.845Z,17.4
2018-07-14T07:39:13.059Z,17.5
2018-07-14T07:40:12.486Z,17.5
2018-07-14T07:42:10.873Z,17.5
2018-07-14T07:43:10.317Z,17.5
2018-07-14T07:44:09.593Z,17.5
2018-07-14T07:45:08.814Z,17.5
2018-07-14T07:46:08.532Z,17.6
2018-07-14T07:47:07.352Z,17.6
2018-07-14T07:48:06.779Z,17.6
2018-07-14T07:49:06.395Z,17.6
2018-07-14T07:50:05.609Z,17.6
2018-07-14T07:51:04.929Z,17.7
2018-07-14T07:52:04.146Z,17.8
2018-07-14T07:53:03.874Z,17.9
2018-07-14T07:54:02.599Z,18
2018-07-14T07:55:02.426Z,18
2018-07-14T07:56:01.756Z,18
2018-07-14T07:57:00.969Z,18.1
2018-07-14T07:58:00.200Z,18.1
2018-07-14T07:58:59.556Z,18.1
2018-07-14T07:59:59.044Z,18
2018-07-14T08:00:58.475Z,18
2018-07-14T08:01:57.597Z,18
2018-07-14T08:02:56.817Z,18
2018-07-14T08:03:56.257Z,18
2018-07-14T08:04:55.476Z,18
2018-07-14T08:06:54.073Z,18.1
2018-07-14T08:07:53.414Z,18.1
2018-07-14T08:08:52.742Z,18.2
2018-07-14T08:10:51.465Z,18.2
2018-07-14T08:11:50.903Z,18.2
2018-07-14T08:12:50.229Z,18.2
2018-07-14T08:13:20.555Z,18.2
2018-07-14T08:13:51.244Z,18.3
2018-07-14T08:14:21.667Z,18.3
2018-07-14T08:14:52.198Z,18.3
2018-07-14T08:15:22.941Z,18.3
2018-07-14T08:16:47.722Z,18.4
2018-07-14T08:17:47.149Z,18.4
2018-07-14T08:18:46.368Z,18.4
2018-07-14T08:19:45.587Z,18.4
2018-07-14T08:20:44.817Z,18.5
2018-07-14T08:21:44.151Z,18.5
2018-07-14T08:22:43.726Z,18.6
2018-07-14T08:23:42.994Z,18.6
2018-07-14T08:24:42.420Z,18.7
2018-07-14T08:25:41.422Z,18.8
2018-07-14T08:26:11.949Z,18.8
2018-07-14T08:26:42.193Z,18.8
2018-07-14T08:27:40.523Z,18.8
2018-07-14T08:28:39.737Z,18.7
2018-07-14T08:29:39.060Z,18.8
2018-07-14T08:30:38.173Z,18.8
2018-07-14T08:31:37.496Z,18.8
2018-07-14T08:32:37.215Z,18.7
2018-07-14T08:33:36.534Z,18.8
2018-07-14T08:34:35.755Z,18.9
2018-07-14T08:35:35.078Z,18.9
2018-07-14T08:36:34.413Z,18.9
2018-07-14T08:37:33.636Z,18.9
2018-07-14T08:38:33.474Z,19
2018-07-14T08:39:32.692Z,19
2018-07-14T08:40:32.024Z,19
2018-07-14T08:41:31.248Z,19
2018-07-14T08:42:30.472Z,18.9
2018-07-14T08:43:29.906Z,18.9
2018-07-14T08:44:29.239Z,19
2018-07-14T08:45:28.362Z,19
2018-07-14T08:47:27.075Z,19
2018-07-14T08:48:27.014Z,19.1
2018-07-14T08:49:26.236Z,19.1
2018-07-14T08:50:25.656Z,19.1
2018-07-14T08:51:24.783Z,19.2
2018-07-14T08:52:23.881Z,19.2
2018-07-14T08:53:23.315Z,19.3
2018-07-14T08:54:23.100Z,19.3
2018-07-14T08:55:22.422Z,19.3
2018-07-14T08:56:21.853Z,19.3
2018-07-14T08:57:20.969Z,19.4
2018-07-14T08:57:51.609Z,19.4
2018-07-14T08:58:22.157Z,19.4
2018-07-14T08:59:19.269Z,19.5
2018-07-14T09:00:18.874Z,19.5
2018-07-14T09:01:18.381Z,19.5
2018-07-14T09:02:17.725Z,19.5
2018-07-14T09:03:16.937Z,19.5
2018-07-14T09:04:16.654Z,19.5
2018-07-14T09:05:15.792Z,19.6
2018-07-14T09:06:15.011Z,19.7
2018-07-14T09:07:14.842Z,19.8
2018-07-14T09:08:14.169Z,19.8
2018-07-14T09:09:13.501Z,19.8
2018-07-14T09:10:12.509Z,19.8
2018-07-14T09:11:11.843Z,19.7
2018-07-14T09:12:11.460Z,19.7
2018-07-14T09:13:10.928Z,19.7
2018-07-14T09:14:10.259Z,19.8
2018-07-14T09:15:09.472Z,19.8
2018-07-14T09:16:08.691Z,19.8
2018-07-14T09:17:08.311Z,19.9
2018-07-14T09:18:07.539Z,20
2018-07-14T09:19:06.860Z,20
2018-07-14T09:20:06.587Z,20
2018-07-14T09:21:06.018Z,20.1
2018-07-14T09:23:04.642Z,20.2
2018-07-14T09:24:03.858Z,20.1
2018-07-14T09:25:03.515Z,20.1
2018-07-14T09:26:02.492Z,20.2
2018-07-14T09:27:02.175Z,20.2
2018-07-14T09:28:01.296Z,20.2
2018-07-14T09:29:00.676Z,20.3
2018-07-14T09:30:00.015Z,20.4
2018-07-14T09:30:59.365Z,20.4
2018-07-14T09:31:58.800Z,20.4
2018-07-14T09:32:58.527Z,20.4
2018-07-14T09:33:57.861Z,20.4
2018-07-14T09:34:57.187Z,20.4
2018-07-14T09:35:56.400Z,20.4
2018-07-14T09:36:55.725Z,20.5
2018-07-14T09:37:55.483Z,20.5
2018-07-14T09:38:54.805Z,20.6
2018-07-14T09:39:53.822Z,20.6
2018-07-14T09:40:53.444Z,20.6
2018-07-14T09:41:52.889Z,20.6
2018-07-14T09:42:52.108Z,20.6
2018-07-14T09:43:51.546Z,20.7
2018-07-14T09:44:50.916Z,20.7
2018-07-14T09:45:50.426Z,20.8
2018-07-14T09:46:49.760Z,20.8
2018-07-14T09:47:49.333Z,20.8
2018-07-14T09:48:48.572Z,20.8
2018-07-14T09:49:48.015Z,20.8
2018-07-14T09:50:47.344Z,20.8
2018-07-14T09:51:46.584Z,20.9
2018-07-14T09:52:46.011Z,20.9
2018-07-14T09:53:16.653Z,20.9
2018-07-14T09:53:46.946Z,21
2018-07-14T09:54:17.471Z,21
2018-07-14T09:54:48.156Z,21
2018-07-14T09:55:19.135Z,21
2018-07-14T09:55:49.390Z,21.1
2018-07-14T09:56:43.685Z,21.1
2018-07-14T09:57:42.690Z,21.1
2018-07-14T09:58:42.629Z,21.2
2018-07-14T09:59:41.575Z,21.2
2018-07-14T10:00:41.189Z,21.4
2018-07-14T10:01:40.521Z,21.5
2018-07-14T10:02:39.970Z,21.5
2018-07-14T10:03:39.180Z,21.4
2018-07-14T10:04:09.416Z,21.4
2018-07-14T10:04:39.948Z,21.5
2018-07-14T10:05:10.376Z,21.5
2018-07-14T10:05:41.118Z,21.5
2018-07-14T10:06:11.620Z,21.5
2018-07-14T10:06:41.848Z,21.6
2018-07-14T10:07:37.154Z,21.5
2018-07-14T10:08:36.484Z,21.5
2018-07-14T10:09:35.921Z,21.5
2018-07-14T10:10:35.246Z,21.5
2018-07-14T10:11:34.705Z,21.5
2018-07-14T10:12:34.054Z,21.7
2018-07-14T10:13:33.483Z,21.8
2018-07-14T10:14:32.924Z,21.8
2018-07-14T10:15:32.243Z,21.8
2018-07-14T10:16:31.572Z,21.8
2018-07-14T10:17:31.124Z,21.8
2018-07-14T10:18:30.622Z,21.9
2018-07-14T10:20:29.335Z,21.9
2018-07-14T10:21:28.766Z,22
2018-07-14T10:22:27.788Z,22
2018-07-14T10:23:27.740Z,22
2018-07-14T10:24:27.065Z,22.1
2018-07-14T10:25:26.609Z,22.1
2018-07-14T10:26:25.896Z,22.2
2018-07-14T10:27:25.332Z,22.2
2018-07-14T10:28:24.665Z,22.2
2018-07-14T10:29:23.993Z,22.1
2018-07-14T10:30:23.317Z,22.1
2018-07-14T10:31:22.673Z,22.2
2018-07-14T10:32:22.289Z,22.2
2018-07-14T10:33:21.516Z,22.2
2018-07-14T10:34:21.242Z,22.2
2018-07-14T10:35:20.672Z,22.3
2018-07-14T10:36:19.890Z,22.3
2018-07-14T10:37:19.617Z,22.3
2018-07-14T10:39:18.230Z,22.5
2018-07-14T10:40:17.954Z,22.6
2018-07-14T10:41:17.390Z,22.6
2018-07-14T10:42:17.236Z,22.6
2018-07-14T10:43:15.915Z,22.6
2018-07-14T10:44:15.345Z,22.4
2018-07-14T10:45:14.671Z,22.4
2018-07-14T10:46:14.393Z,22.5
2018-07-14T10:47:13.721Z,22.5
2018-07-14T10:47:44.355Z,22.5
2018-07-14T10:48:14.895Z,22.6
2018-07-14T10:48:45.538Z,22.6
2018-07-14T10:49:16.294Z,22.6
2018-07-14T10:49:46.934Z,22.6
2018-07-14T10:51:11.314Z,22.6
2018-07-14T10:52:11.034Z,22.7
2018-07-14T10:53:10.156Z,22.7
2018-07-14T10:55:09.240Z,22.8
2018-07-14T10:56:08.396Z,22.7
2018-07-14T10:57:08.009Z,22.6
2018-07-14T10:58:07.903Z,22.7
2018-07-14T10:59:07.269Z,22.7
2018-07-14T11:00:06.695Z,22.7
2018-07-14T11:01:05.926Z,22.7
2018-07-14T11:02:05.146Z,22.6
2018-07-14T11:03:04.869Z,22.6
2018-07-14T11:04:04.091Z,22.5
2018-07-14T11:05:03.532Z,22.6
2018-07-14T11:06:03.364Z,22.6
2018-07-14T11:06:34.004Z,22.6
2018-07-14T11:07:04.237Z,22.7
2018-07-14T11:07:34.781Z,22.7
2018-07-14T11:09:01.686Z,23
2018-07-14T11:10:00.795Z,23
2018-07-14T11:11:00.519Z,23.2
2018-07-14T11:11:59.720Z,23.3
2018-07-14T11:12:59.256Z,23.3
2018-07-14T11:13:59.107Z,23.4
2018-07-14T11:14:58.534Z,23.3
2018-07-14T11:15:57.858Z,23.3
2018-07-14T11:16:57.083Z,23.4
2018-07-14T11:17:56.879Z,23.6
2018-07-14T11:18:56.235Z,23.5
2018-07-14T11:19:55.506Z,23.5
2018-07-14T11:20:54.938Z,23.7
2018-07-14T11:21:54.765Z,23.7
2018-07-14T11:22:54.089Z,23.8
2018-07-14T11:23:53.430Z,24
2018-07-14T11:24:52.774Z,24.1
2018-07-14T11:25:52.209Z,24.2
2018-07-14T11:26:51.824Z,24.2
2018-07-14T11:27:51.157Z,24.2
2018-07-14T11:28:50.878Z,24.1
2018-07-14T11:29:50.207Z,24.2
2018-07-14T11:30:49.814Z,24.2
2018-07-14T11:31:49.426Z,24.1
2018-07-14T11:32:48.640Z,24.2
2018-07-14T11:33:48.356Z,24.3
2018-07-14T11:34:47.467Z,24.4
2018-07-14T11:35:47.294Z,24.5
2018-07-14T11:36:46.619Z,24.5
2018-07-14T11:37:46.829Z,24.4
2018-07-14T11:38:45.885Z,24.4
2018-07-14T11:39:45.237Z,24.4
2018-07-14T11:40:44.561Z,24.4
2018-07-14T11:41:44.003Z,24.4
2018-07-14T11:42:43.729Z,24.6
2018-07-14T11:43:42.949Z,24.7
2018-07-14T11:44:42.669Z,24.7
2018-07-14T11:45:12.954Z,24.7
2018-07-14T11:45:42.988Z,24.7
2018-07-14T11:46:13.524Z,24.7
2018-07-14T11:46:44.284Z,24.7
2018-07-14T11:47:41.453Z,24.6
2018-07-14T11:48:40.607Z,24.6
2018-07-14T11:49:40.333Z,24.6
2018-07-14T11:50:39.660Z,24.5
2018-07-14T11:51:39.091Z,24.4
2018-07-14T11:52:38.426Z,24.6
2018-07-14T11:53:38.355Z,24.7
2018-07-14T11:54:37.693Z,24.9
2018-07-14T11:55:37.418Z,24.9
2018-07-14T11:56:36.644Z,25
2018-07-14T11:57:36.089Z,25
2018-07-14T11:58:35.516Z,25.1
2018-07-14T11:59:35.242Z,25.1
2018-07-14T12:00:34.575Z,25.1
2018-07-14T12:01:34.414Z,25.2
2018-07-14T12:02:33.748Z,25.2
2018-07-14T12:03:33.068Z,25.1
2018-07-14T12:04:32.897Z,25.2
2018-07-14T12:05:32.222Z,25.1
2018-07-14T12:06:02.868Z,25.1
2018-07-14T12:07:31.390Z,25.2
2018-07-14T12:08:30.719Z,25.5
2018-07-14T12:09:30.647Z,25.7
2018-07-14T12:11:29.259Z,26
2018-07-14T12:12:29.201Z,25.9
2018-07-14T12:13:28.446Z,25.9
2018-07-14T12:14:27.801Z,25.8
2018-07-14T12:15:27.421Z,25.7
2018-07-14T12:16:27.248Z,25.8
2018-07-14T12:18:25.961Z,25.8
2018-07-14T12:19:25.358Z,25.5
2018-07-14T12:20:25.188Z,25.8
2018-07-14T12:21:24.522Z,25.7
2018-07-14T12:22:24.696Z,25.6
2018-07-14T12:23:23.662Z,25.5
2018-07-14T12:24:23.385Z,25.5
2018-07-14T12:25:23.006Z,25.7
2018-07-14T12:26:22.432Z,25.8
2018-07-14T12:27:21.903Z,25.6
2018-07-14T12:28:21.755Z,25.7
2018-07-14T12:29:20.970Z,25.9
2018-07-14T12:30:20.813Z,26
2018-07-14T12:31:20.073Z,25.9
2018-07-14T12:32:19.793Z,25.9
2018-07-14T12:33:19.119Z,26
2018-07-14T12:34:18.947Z,26.1
2018-07-14T12:35:18.275Z,26.1
2018-07-14T12:36:17.900Z,26.2
2018-07-14T12:37:17.731Z,26.3
2018-07-14T12:38:17.063Z,26.2
2018-07-14T12:39:16.389Z,26.2
2018-07-14T12:40:16.113Z,26.2
2018-07-14T12:41:15.949Z,26.3
2018-07-14T12:42:15.165Z,26.5
2018-07-14T12:43:15.005Z,26.6
2018-07-14T12:44:14.505Z,26.5
2018-07-14T12:45:14.117Z,26.6
2018-07-14T12:46:13.841Z,26.7
2018-07-14T12:47:13.162Z,26.6
2018-07-14T12:48:12.991Z,26.1
2018-07-14T12:48:43.628Z,26.1
2018-07-14T12:49:14.162Z,26.1
2018-07-14T12:49:44.590Z,26.1
2018-07-14T12:51:11.486Z,26.2
2018-07-14T12:52:11.207Z,25.9
2018-07-14T12:53:10.634Z,26.1
2018-07-14T12:54:10.362Z,25.9
2018-07-14T12:55:09.687Z,26
2018-07-14T12:56:09.407Z,26.1
2018-07-14T12:57:08.631Z,26.1
2018-07-14T12:58:08.462Z,26.3